createdAt,value
2022-10-21T00:02:29.762Z,95621.81
2022-10-21T00:07:32.846Z,95623.16
2022-10-21T00:12:36.194Z,95618.78
2022-10-21T00:17:39.300Z,95622.69
2022-10-21T00:22:42.304Z,95622.97
2022-10-21T00:27:55.285Z,95605.38
2022-10-21T00:33:02.157Z,95611.22
2022-10-21T00:38:06.330Z,95610.66
2022-10-21T00:43:09.621Z,95611.97
2022-10-21T00:48:12.631Z,95591.75
2022-10-21T00:53:15.933Z,95596.50
2022-10-21T00:58:19.037Z,95612.59
2022-10-21T01:03:22.227Z,95595.91
2022-10-21T01:08:25.552Z,95609.81
2022-10-21T01:13:29.061Z,95602.81
2022-10-21T01:18:32.557Z,95599.50
2022-10-21T01:23:35.700Z,95601.16
2022-10-21T01:28:38.774Z,95600.50
2022-10-21T01:33:42.023Z,95588.78
2022-10-21T01:38:44.967Z,95585.56
2022-10-21T01:43:50.054Z,95588.56
2022-10-21T01:48:53.268Z,95583.41
2022-10-21T01:53:57.380Z,95568.59
2022-10-21T01:59:00.488Z,95559.63
2022-10-21T02:04:03.325Z,95554.72
2022-10-21T02:09:06.209Z,95555.03
2022-10-21T02:14:09.404Z,95551.41
2022-10-21T02:19:12.212Z,95552.03
2022-10-21T02:24:15.141Z,95553.13
2022-10-21T02:29:17.879Z,95555.97
2022-10-21T02:34:21.489Z,95552.94
2022-10-21T02:39:28.108Z,95544.69
2022-10-21T02:44:30.817Z,95546.31
2022-10-21T02:49:33.464Z,95520.84
2022-10-21T02:54:36.387Z,95504.22
2022-10-21T02:59:39.095Z,95502.84
2022-10-21T03:04:41.756Z,95487.59
2022-10-21T03:09:44.541Z,95487.09
2022-10-21T03:14:47.432Z,95486.06
2022-10-21T03:19:50.266Z,95495.56
2022-10-21T03:24:52.977Z,95505.03
2022-10-21T03:29:55.779Z,95502.75
2022-10-21T03:34:58.569Z,95486.97
2022-10-21T03:40:01.386Z,95492.53
2022-10-21T03:45:04.247Z,95488.53
2022-10-21T03:50:10.263Z,95473.75
2022-10-21T03:55:17.394Z,95470.53
2022-10-21T04:00:20.149Z,95466.00
2022-10-21T04:05:23.205Z,95439.44
2022-10-21T04:10:25.970Z,95441.91
2022-10-21T04:15:28.609Z,95433.81
2022-10-21T04:20:31.421Z,95433.97
2022-10-21T04:25:34.289Z,95420.09
2022-10-21T04:30:36.962Z,95409.00
2022-10-21T04:35:39.895Z,95405.84
2022-10-21T04:40:42.718Z,95407.72
2022-10-21T04:45:45.404Z,95399.25
2022-10-21T04:50:52.354Z,95377.66
2022-10-21T04:55:55.409Z,95373.16
2022-10-21T05:00:58.170Z,95363.94
2022-10-21T05:06:01.014Z,95362.72
2022-10-21T05:11:03.813Z,95371.47
2022-10-21T05:16:07.101Z,95365.84
2022-10-21T05:21:14.518Z,95347.22
2022-10-21T05:26:17.196Z,95339.53
2022-10-21T05:31:19.901Z,95339.53
2022-10-21T05:36:24.070Z,95340.94
2022-10-21T05:41:32.107Z,95350.78
2022-10-21T05:46:35.044Z,95352.09
2022-10-21T05:51:37.838Z,95359.44
2022-10-21T05:56:42.596Z,95348.41
2022-10-21T06:01:45.541Z,95341.13
2022-10-21T06:06:48.478Z,95346.50
2022-10-21T06:11:51.410Z,95346.34
2022-10-21T06:16:56.590Z,95355.25
2022-10-21T06:21:59.446Z,95343.75
2022-10-21T06:27:02.247Z,95347.41
2022-10-21T06:32:05.053Z,95352.19
2022-10-21T06:37:07.956Z,95355.91
2022-10-21T06:42:10.652Z,95347.34
2022-10-21T06:47:13.325Z,95337.56
2022-10-21T06:52:16.193Z,95335.13
2022-10-21T06:57:18.940Z,95318.09
2022-10-21T07:02:21.581Z,95313.09
2022-10-21T07:07:24.311Z,95325.75
2022-10-21T07:12:27.205Z,95307.25
2022-10-21T07:17:29.986Z,95307.25
2022-10-21T07:22:38.557Z,95300.34
2022-10-21T07:27:43.448Z,95300.47
2022-10-21T07:32:48.854Z,95291.03
2022-10-21T07:37:51.539Z,95282.44
2022-10-21T07:42:54.380Z,95285.31
2022-10-21T07:47:57.338Z,95278.13
2022-10-21T07:53:11.023Z,95271.72
2022-10-21T07:58:15.536Z,95263.91
2022-10-21T08:03:18.369Z,95270.03
2022-10-21T08:08:22.197Z,95264.28
2022-10-21T08:13:24.893Z,95272.44
2022-10-21T08:18:27.583Z,95256.03
2022-10-21T08:23:30.278Z,95260.03
2022-10-21T08:28:33.086Z,95271.09
2022-10-21T08:33:35.854Z,95247.16
2022-10-21T08:38:38.636Z,95245.78
2022-10-21T08:43:41.359Z,95256.66
2022-10-21T08:48:44.015Z,95244.59
2022-10-21T08:53:46.984Z,95253.41
2022-10-21T08:58:49.655Z,95247.97
2022-10-21T09:03:54.463Z,95253.19
2022-10-21T09:08:57.658Z,95254.31
2022-10-21T09:14:00.423Z,95264.34
2022-10-21T09:19:03.171Z,95263.78
2022-10-21T09:24:05.874Z,95279.97
2022-10-21T09:29:08.618Z,95279.78
2022-10-21T09:34:11.306Z,95290.34
2022-10-21T09:39:14.394Z,95307.91
2022-10-21T09:44:17.218Z,95318.94
2022-10-21T09:54:45.509Z,95392.16
2022-10-21T09:59:48.287Z,95429.91
2022-10-21T10:04:51.212Z,95430.34
2022-10-21T10:09:54.469Z,95443.22
2022-10-21T10:14:57.159Z,95424.25
2022-10-21T10:20:00.044Z,95439.47
2022-10-21T10:25:02.830Z,95450.91
2022-10-21T10:30:06.597Z,95463.19
2022-10-21T10:35:12.451Z,95456.19
2022-10-21T10:40:15.733Z,95472.09
2022-10-21T10:45:20.102Z,95485.69
2022-10-21T10:50:26.584Z,95458.34
2022-10-21T10:55:30.418Z,95429.00
2022-10-21T11:00:33.478Z,95450.63
2022-10-21T11:05:37.479Z,95463.84
2022-10-21T11:10:40.481Z,95485.63
2022-10-21T11:15:43.556Z,95447.75
2022-10-21T11:20:46.370Z,95477.41
2022-10-21T11:25:49.280Z,95503.38
2022-10-21T11:30:52.230Z,95519.81
2022-10-21T11:35:57.778Z,95503.53
2022-10-21T11:41:01.259Z,95520.19
2022-10-21T11:46:03.971Z,95519.44
2022-10-21T11:51:08.822Z,95519.66
2022-10-21T11:56:12.854Z,95511.72
2022-10-21T12:01:15.958Z,95509.00
2022-10-21T12:06:18.844Z,95497.41
2022-10-21T12:11:21.749Z,95488.16
2022-10-21T12:16:24.442Z,95489.44
2022-10-21T12:21:27.362Z,95484.25
2022-10-21T12:26:30.419Z,95487.63
2022-10-21T12:31:33.239Z,95486.34
2022-10-21T12:36:35.958Z,95491.97
2022-10-21T12:41:39.543Z,95492.31
2022-10-21T12:46:42.575Z,95497.44
2022-10-21T12:51:46.982Z,95491.81
2022-10-21T12:56:50.143Z,95492.94
2022-10-21T13:01:52.963Z,95484.66
2022-10-21T13:06:55.988Z,95483.69
2022-10-21T13:11:58.815Z,95483.38
2022-10-21T13:17:01.525Z,95486.09
2022-10-21T13:22:04.614Z,95476.19
2022-10-21T13:27:07.279Z,95486.69
2022-10-21T13:32:10.068Z,95503.66
2022-10-21T13:37:13.068Z,95501.53
2022-10-21T13:42:17.507Z,95512.09
2022-10-21T13:47:21.003Z,95526.91
2022-10-21T13:52:23.838Z,95521.09
2022-10-21T13:57:26.741Z,95528.38
2022-10-21T14:02:29.830Z,95530.81
2022-10-21T14:07:33.227Z,95526.81
2022-10-21T14:12:36.595Z,95521.13
2022-10-21T14:17:39.830Z,95530.03
2022-10-21T14:22:43.089Z,95519.31
2022-10-21T14:27:47.258Z,95502.69
2022-10-21T14:32:50.093Z,95506.50
2022-10-21T14:37:52.946Z,95507.41
2022-10-21T14:42:56.333Z,95506.28
2022-10-21T14:47:59.194Z,95508.09
2022-10-21T14:53:02.021Z,95498.19
2022-10-21T14:58:04.871Z,95504.69
2022-10-21T15:03:07.906Z,95511.41
2022-10-21T15:08:11.215Z,95521.53
2022-10-21T15:13:14.027Z,95517.94
2022-10-21T15:18:16.825Z,95529.03
2022-10-21T15:23:20.262Z,95506.53
2022-10-21T15:28:23.957Z,95520.75
2022-10-21T15:33:26.749Z,95521.81
2022-10-21T15:38:29.602Z,95511.13
2022-10-21T15:43:32.510Z,95510.34
2022-10-21T15:48:35.351Z,95510.34
2022-10-21T15:53:40.977Z,95515.53
2022-10-21T15:58:46.686Z,95515.72
2022-10-21T16:03:49.382Z,95512.50
2022-10-21T16:08:53.227Z,95505.69
2022-10-21T16:13:56.072Z,95513.91
2022-10-21T16:18:59.522Z,95508.22
2022-10-21T16:24:02.729Z,95500.91
2022-10-21T16:29:05.735Z,95513.63
2022-10-21T16:34:08.561Z,95516.63
2022-10-21T16:39:11.531Z,95519.03
2022-10-21T16:44:14.265Z,95529.13
2022-10-21T16:49:16.953Z,95529.13
2022-10-21T16:54:19.878Z,95535.53
2022-10-21T16:59:22.649Z,95533.94
2022-10-21T17:04:25.398Z,95520.44
2022-10-21T17:09:28.304Z,95538.53
2022-10-21T17:14:31.267Z,95525.53
2022-10-21T17:19:36.094Z,95524.09
2022-10-21T17:24:38.889Z,95530.78
2022-10-21T17:29:41.740Z,95521.88
2022-10-21T17:34:44.701Z,95521.16
2022-10-21T17:39:47.451Z,95523.34
2022-10-21T17:44:50.366Z,95512.88
2022-10-21T17:49:53.081Z,95518.03
2022-10-21T17:54:55.877Z,95516.84
2022-10-21T17:59:59.722Z,95506.66
2022-10-21T18:05:02.546Z,95514.25
2022-10-21T18:10:05.543Z,95506.81
2022-10-21T18:15:08.289Z,95516.00
2022-10-21T18:20:11.105Z,95517.38
2022-10-21T18:25:13.812Z,95506.81
2022-10-21T18:30:16.749Z,95486.22
2022-10-21T18:35:19.996Z,95485.66
2022-10-21T18:40:23.248Z,95486.69
2022-10-21T18:45:26.264Z,95480.66
2022-10-21T18:50:29.119Z,95478.97
2022-10-21T18:55:32.178Z,95468.09
2022-10-21T19:00:35.299Z,95462.59
2022-10-21T19:05:40.383Z,95469.00
2022-10-21T19:10:44.266Z,95466.78
2022-10-21T19:15:47.093Z,95466.50
2022-10-21T19:20:50.011Z,95454.00
2022-10-21T19:25:52.729Z,95465.91
2022-10-21T19:30:57.253Z,95469.13
2022-10-21T19:36:00.285Z,95462.09
2022-10-21T19:41:03.207Z,95466.69
2022-10-21T19:46:06.280Z,95467.72
2022-10-21T19:51:10.652Z,95469.50
2022-10-21T19:56:16.321Z,95468.50
2022-10-21T20:01:19.752Z,95472.91
2022-10-21T20:06:22.764Z,95475.72
2022-10-21T20:11:25.732Z,95480.09
2022-10-21T20:16:28.597Z,95467.31
2022-10-21T20:21:32.927Z,95459.19
2022-10-21T20:26:35.698Z,95431.09
2022-10-21T20:31:38.460Z,95416.88
2022-10-21T20:36:41.257Z,95409.41
2022-10-21T20:41:44.006Z,95430.00
2022-10-21T20:46:46.958Z,95425.31
2022-10-21T20:51:49.644Z,95412.19
2022-10-21T20:56:52.385Z,95423.41
2022-10-21T21:01:55.804Z,95423.69
2022-10-21T21:06:58.552Z,95415.88
2022-10-21T21:12:03.629Z,95403.78
2022-10-21T21:17:10.030Z,95409.06
2022-10-21T21:22:12.739Z,95404.25
2022-10-21T21:27:15.403Z,95416.31
2022-10-21T21:32:19.005Z,95413.03
2022-10-21T21:37:21.684Z,95407.25
2022-10-21T21:42:24.379Z,95408.06
2022-10-21T21:47:27.222Z,95415.66
2022-10-21T21:52:30.427Z,95419.34
2022-10-21T21:57:33.280Z,95428.25
2022-10-21T22:02:35.925Z,95444.81
2022-10-21T22:07:38.889Z,95458.22
2022-10-21T22:12:41.782Z,95461.81
2022-10-21T22:17:44.478Z,95466.50
2022-10-21T22:22:47.163Z,95469.78
2022-10-21T22:27:50.087Z,95464.88
2022-10-21T22:32:52.790Z,95447.41
2022-10-21T22:37:55.526Z,95464.56
2022-10-21T22:42:58.232Z,95450.28
2022-10-21T22:48:00.898Z,95450.56
2022-10-21T22:53:03.692Z,95442.56
2022-10-21T22:58:06.468Z,95443.09
2022-10-21T23:03:09.847Z,95435.34
2022-10-21T23:08:18.784Z,95434.38
2022-10-21T23:13:21.471Z,95432.19
2022-10-21T23:18:24.179Z,95421.91
2022-10-21T23:23:26.899Z,95419.78
2022-10-21T23:28:29.718Z,95431.00
2022-10-21T23:33:32.958Z,95437.81
2022-10-21T23:38:35.602Z,95429.22
2022-10-21T23:43:38.301Z,95431.00
2022-10-21T23:48:40.967Z,95428.22
2022-10-21T23:53:43.613Z,95432.03
2022-10-21T23:58:46.377Z,95424.22
